createdAt,value
2023-07-09T04:02:37.123Z,5.55
2023-07-09T04:05:09.076Z,5.25
2023-07-09T04:07:40.758Z,4.82
2023-07-09T04:10:12.528Z,5.25
2023-07-09T04:12:44.244Z,5.18
2023-07-09T04:15:15.927Z,5.15
2023-07-09T04:17:49.002Z,4.65
2023-07-09T04:20:20.691Z,5.50
2023-07-09T04:22:52.400Z,4.85
2023-07-09T04:25:24.096Z,4.68
2023-07-09T04:27:55.792Z,5.45
2023-07-09T04:30:27.565Z,5.75
2023-07-09T04:33:00.643Z,4.78
2023-07-09T04:35:32.372Z,5.10
2023-07-09T04:38:04.090Z,4.80
2023-07-09T04:40:35.814Z,5.20
2023-07-09T04:43:07.528Z,4.95
2023-07-09T04:45:39.334Z,4.90
2023-07-09T04:48:12.445Z,4.50
2023-07-09T04:50:44.413Z,4.93
2023-07-09T04:53:16.097Z,5.03
2023-07-09T04:55:47.810Z,4.18
2023-07-09T04:58:19.578Z,4.75
2023-07-09T05:00:51.306Z,4.63
2023-07-09T05:03:24.405Z,4.13
2023-07-09T05:05:56.107Z,4.40
2023-07-09T05:08:27.777Z,4.55
2023-07-09T05:10:59.529Z,4.25
2023-07-09T05:13:31.248Z,4.38
2023-07-09T05:16:03.350Z,4.35
2023-07-09T05:18:37.094Z,4.05
2023-07-09T05:21:08.809Z,3.92
2023-07-09T05:23:40.505Z,4.10
2023-07-09T05:26:12.176Z,4.72
2023-07-09T05:28:43.891Z,4.32
2023-07-09T05:31:15.615Z,4.00
2023-07-09T05:33:48.743Z,4.20
2023-07-09T05:36:20.415Z,4.00
2023-07-09T05:38:52.113Z,4.25
2023-07-09T05:41:23.957Z,3.78
2023-07-09T05:43:55.638Z,4.05
2023-07-09T05:46:28.135Z,4.20
2023-07-09T05:49:01.177Z,4.03
2023-07-09T05:51:33.017Z,4.22
2023-07-09T05:54:04.766Z,3.83
2023-07-09T05:56:36.466Z,4.10
2023-07-09T05:59:08.154Z,4.10
2023-07-09T06:01:40.251Z,3.90
2023-07-09T06:04:13.380Z,4.15
2023-07-09T06:06:45.494Z,4.00
2023-07-09T06:09:17.265Z,3.80
2023-07-09T06:11:49.028Z,3.90
2023-07-09T06:14:20.726Z,4.22
2023-07-09T06:16:52.420Z,3.67
2023-07-09T06:19:25.551Z,4.10
2023-07-09T06:21:57.230Z,3.90
2023-07-09T06:24:28.922Z,3.95
2023-07-09T06:27:00.606Z,3.75
2023-07-09T06:29:32.312Z,3.45
2023-07-09T06:32:04.779Z,3.70
2023-07-09T06:34:37.909Z,4.07
2023-07-09T06:37:09.628Z,4.03
2023-07-09T06:39:41.795Z,3.88
2023-07-09T06:42:13.869Z,4.45
2023-07-09T06:44:45.938Z,3.78
2023-07-09T06:47:18.008Z,4.07
2023-07-09T06:49:51.398Z,3.80
2023-07-09T06:52:23.459Z,4.00
2023-07-09T06:54:55.503Z,3.88
2023-07-09T06:57:27.579Z,4.20
2023-07-09T06:59:59.265Z,3.97
2023-07-09T07:02:31.026Z,3.95
2023-07-09T07:05:04.538Z,3.35
2023-07-09T07:07:36.248Z,3.97
2023-07-09T07:10:08.891Z,4.05
2023-07-09T07:12:44.253Z,3.95
2023-07-09T07:15:16.840Z,4.13
2023-07-09T07:17:48.953Z,3.95
2023-07-09T07:20:22.406Z,3.40
2023-07-09T07:22:54.464Z,3.97
2023-07-09T07:25:26.647Z,4.00
2023-07-09T07:27:58.685Z,3.90
2023-07-09T07:30:30.735Z,3.53
2023-07-09T07:33:02.813Z,3.80
2023-07-09T07:35:35.884Z,3.83
2023-07-09T07:38:07.565Z,3.70
2023-07-09T07:40:39.360Z,3.78
2023-07-09T07:43:11.042Z,3.60
2023-07-09T07:45:42.818Z,3.53
2023-07-09T07:48:14.515Z,4.00
2023-07-09T07:50:47.786Z,3.47
2023-07-09T07:53:19.469Z,3.60
2023-07-09T07:55:51.143Z,4.10
2023-07-09T07:58:22.860Z,3.78
2023-07-09T08:00:56.198Z,3.50
2023-07-09T08:03:27.941Z,3.92
2023-07-09T08:06:02.535Z,4.32
2023-07-09T08:08:34.792Z,4.60
2023-07-09T08:11:07.333Z,4.05
2023-07-09T08:13:39.272Z,3.80
2023-07-09T08:16:11.053Z,3.60
2023-07-09T08:18:42.793Z,4.10
2023-07-09T08:21:15.865Z,3.75
2023-07-09T08:23:47.570Z,3.50
2023-07-09T08:26:19.264Z,3.50
2023-07-09T08:28:51.035Z,3.60
2023-07-09T08:31:22.759Z,3.55
2023-07-09T08:33:54.480Z,3.90
2023-07-09T08:36:29.729Z,3.67
2023-07-09T08:39:02.353Z,4.38
2023-07-09T08:41:41.295Z,4.03
2023-07-09T08:44:24.461Z,3.88
2023-07-09T08:47:01.040Z,4.03
2023-07-09T08:49:38.447Z,4.20
2023-07-09T08:52:15.780Z,3.88
2023-07-09T08:54:47.473Z,3.85
2023-07-09T08:57:21.836Z,4.35
2023-07-09T08:59:57.681Z,3.88
2023-07-09T09:02:32.848Z,4.05
2023-07-09T09:05:04.938Z,3.85
2023-07-09T09:07:40.789Z,4.47
2023-07-09T09:10:14.217Z,4.22
2023-07-09T09:12:55.009Z,3.95
2023-07-09T09:15:26.723Z,3.53
2023-07-09T09:18:02.462Z,4.00
2023-07-09T09:20:34.259Z,4.25
2023-07-09T09:23:13.558Z,3.97
2023-07-09T09:25:51.211Z,3.80
2023-07-09T09:28:25.289Z,3.63
2023-07-09T09:30:57.077Z,3.63
2023-07-09T09:33:37.841Z,3.60
2023-07-09T09:36:15.115Z,3.60
2023-07-09T09:38:48.237Z,3.97
2023-07-09T09:41:20.993Z,4.25
2023-07-09T09:43:53.778Z,3.80
2023-07-09T09:46:26.362Z,3.80
2023-07-09T09:49:00.587Z,4.13
2023-07-09T09:51:34.676Z,3.65
2023-07-09T09:54:14.901Z,3.85
2023-07-09T09:56:48.304Z,3.95
2023-07-09T09:59:22.467Z,4.00
2023-07-09T10:02:06.837Z,4.03
2023-07-09T10:04:38.609Z,4.35
2023-07-09T10:07:11.925Z,4.15
2023-07-09T10:09:47.648Z,3.65
2023-07-09T10:12:27.160Z,3.90
2023-07-09T10:15:00.855Z,4.00
2023-07-09T10:17:37.065Z,3.97
2023-07-09T10:20:16.283Z,3.80
2023-07-09T10:22:51.328Z,3.72
2023-07-09T10:25:31.559Z,4.10
2023-07-09T10:28:26.630Z,4.18
2023-07-09T10:31:02.076Z,3.72
2023-07-09T10:33:38.490Z,3.40
2023-07-09T10:36:18.019Z,3.80
2023-07-09T10:38:51.696Z,3.70
2023-07-09T10:41:27.522Z,3.92
2023-07-09T10:44:01.882Z,3.83
2023-07-09T10:46:35.174Z,4.28
2023-07-09T10:49:08.640Z,3.70
2023-07-09T10:51:41.385Z,3.97
2023-07-09T10:54:16.321Z,3.83
2023-07-09T10:56:51.053Z,4.28
2023-07-09T10:59:23.589Z,4.20
2023-07-09T11:01:57.145Z,3.88
2023-07-09T11:04:31.159Z,3.85
2023-07-09T11:07:04.514Z,3.95
2023-07-09T11:09:36.694Z,3.75
2023-07-09T11:12:13.149Z,3.83
2023-07-09T11:14:47.630Z,4.30
2023-07-09T11:17:20.120Z,3.47
2023-07-09T11:19:55.244Z,3.30
2023-07-09T11:22:28.590Z,3.42
2023-07-09T11:25:07.625Z,4.10
2023-07-09T11:27:51.979Z,3.67
2023-07-09T11:30:25.100Z,3.90
2023-07-09T11:33:04.666Z,3.40
2023-07-09T11:35:50.903Z,3.45
2023-07-09T11:38:23.811Z,3.60
2023-07-09T11:40:56.424Z,3.78
2023-07-09T11:43:32.227Z,3.78
2023-07-09T11:46:12.214Z,3.47
2023-07-09T11:48:43.920Z,3.70
2023-07-09T11:51:16.531Z,4.25
2023-07-09T11:53:49.255Z,4.05
2023-07-09T11:56:21.155Z,3.50
2023-07-09T11:58:55.631Z,3.65
2023-07-09T12:01:29.039Z,3.55
2023-07-09T12:04:00.784Z,3.70
2023-07-09T12:06:33.557Z,3.00
2023-07-09T12:09:05.259Z,3.50
2023-07-09T12:11:36.962Z,3.92
2023-07-09T12:14:11.981Z,3.33
2023-07-09T12:16:44.478Z,3.22
2023-07-09T12:19:18.007Z,3.15
2023-07-09T12:21:50.593Z,3.35
2023-07-09T12:24:23.547Z,3.47
2023-07-09T12:26:55.904Z,3.30
2023-07-09T12:29:29.747Z,3.05
2023-07-09T12:32:04.687Z,3.05
2023-07-09T12:34:36.486Z,3.58
2023-07-09T12:37:09.429Z,3.42
2023-07-09T12:39:41.119Z,3.20
2023-07-09T12:42:19.017Z,3.10
2023-07-09T12:44:52.048Z,3.50
2023-07-09T12:47:25.025Z,3.50
2023-07-09T12:50:01.604Z,3.60
2023-07-09T12:52:33.338Z,3.67
2023-07-09T12:55:05.914Z,3.47
2023-07-09T12:57:38.667Z,3.30
2023-07-09T13:00:15.248Z,3.65
2023-07-09T13:02:47.110Z,3.38
2023-07-09T13:05:19.929Z,3.72
2023-07-09T13:07:52.523Z,3.13
2023-07-09T13:10:25.470Z,3.17
2023-07-09T13:12:58.289Z,3.60
2023-07-09T13:15:32.178Z,3.78
2023-07-09T13:18:04.881Z,3.40
2023-07-09T13:20:38.905Z,3.90
2023-07-09T13:23:11.247Z,3.38
2023-07-09T13:25:47.646Z,3.22
2023-07-09T13:28:21.675Z,3.22
2023-07-09T13:30:56.691Z,3.45
2023-07-09T13:33:28.632Z,3.38
2023-07-09T13:36:00.340Z,3.45
2023-07-09T13:38:32.054Z,3.70
2023-07-09T13:41:14.526Z,3.15
2023-07-09T13:43:47.387Z,3.97
2023-07-09T13:46:19.089Z,3.80
2023-07-09T13:48:50.922Z,4.15
2023-07-09T13:51:24.149Z,3.85
2023-07-09T13:53:56.613Z,3.63
2023-07-09T13:56:29.686Z,4.20
2023-07-09T13:59:01.381Z,3.38
2023-07-09T14:01:33.224Z,4.00
2023-07-09T14:04:05.213Z,3.00
2023-07-09T14:06:36.924Z,3.60
2023-07-09T14:09:09.605Z,3.45
2023-07-09T14:11:44.347Z,3.47
2023-07-09T14:14:18.042Z,3.53
2023-07-09T14:16:50.521Z,3.42
2023-07-09T14:19:25.828Z,3.50
2023-07-09T14:21:57.592Z,3.75
2023-07-09T14:24:29.666Z,3.60
2023-07-09T14:27:02.761Z,3.50
2023-07-09T14:29:34.463Z,3.05
2023-07-09T14:32:09.650Z,3.50
2023-07-09T14:34:41.361Z,3.53
2023-07-09T14:37:13.044Z,3.20
2023-07-09T14:39:44.749Z,3.60
2023-07-09T14:42:17.832Z,3.78
2023-07-09T14:44:49.622Z,3.83
2023-07-09T14:47:21.908Z,3.97
2023-07-09T14:49:53.578Z,3.47
2023-07-09T14:52:25.324Z,3.70
2023-07-09T14:54:56.994Z,4.22
2023-07-09T14:57:30.084Z,3.40
2023-07-09T15:00:02.113Z,4.13
2023-07-09T15:02:35.326Z,3.80
2023-07-09T15:05:12.183Z,4.22
2023-07-09T15:07:43.889Z,3.92
2023-07-09T15:10:16.165Z,3.95
2023-07-09T15:12:49.281Z,3.85
2023-07-09T15:15:22.641Z,4.40
2023-07-09T15:17:55.848Z,3.60
2023-07-09T15:20:28.909Z,3.92
2023-07-09T15:23:00.676Z,4.15
2023-07-09T15:25:32.774Z,4.00
2023-07-09T15:28:05.936Z,3.80
2023-07-09T15:30:37.694Z,4.45
2023-07-09T15:33:11.051Z,4.18
2023-07-09T15:35:43.444Z,4.40
2023-07-09T15:38:22.181Z,4.57
2023-07-09T15:40:53.853Z,5.82
2023-07-09T15:43:27.031Z,5.65
2023-07-09T15:45:58.902Z,4.72
2023-07-09T15:48:31.959Z,5.35
2023-07-09T15:51:05.106Z,4.32
2023-07-09T15:53:37.142Z,4.30
2023-07-09T15:56:13.226Z,4.55
2023-07-09T15:58:46.652Z,4.28
2023-07-09T16:01:18.893Z,5.38
2023-07-09T16:03:51.350Z,4.85
2023-07-09T16:06:23.640Z,5.47
2023-07-09T16:08:55.702Z,5.00
2023-07-09T16:11:27.769Z,3.95
2023-07-09T16:14:01.203Z,4.20
2023-07-09T16:16:33.352Z,4.32
2023-07-09T16:19:05.485Z,4.10
2023-07-09T16:21:37.575Z,4.22
2023-07-09T16:24:15.347Z,4.03
2023-07-09T16:26:47.256Z,4.65
2023-07-09T16:29:21.336Z,4.50
2023-07-09T16:31:53.743Z,4.90
2023-07-09T16:34:25.623Z,4.47
2023-07-09T16:36:57.839Z,4.13
2023-07-09T16:39:30.255Z,4.05
2023-07-09T16:42:01.953Z,3.80
2023-07-09T16:44:35.048Z,4.18
2023-07-09T16:47:11.918Z,4.00
2023-07-09T16:49:43.657Z,3.72
2023-07-09T16:52:16.110Z,4.18
2023-07-09T16:54:47.923Z,3.92
2023-07-09T16:57:20.479Z,4.20
2023-07-09T16:59:53.680Z,3.92
2023-07-09T17:02:27.090Z,3.95
2023-07-09T17:04:59.955Z,3.97
2023-07-09T17:07:31.669Z,3.97
2023-07-09T17:10:03.676Z,4.13
2023-07-09T17:12:35.442Z,4.20
2023-07-09T17:15:19.044Z,3.65
2023-07-09T17:17:50.974Z,4.30
2023-07-09T17:20:23.476Z,4.07
2023-07-09T17:22:55.971Z,3.78
2023-07-09T17:25:31.217Z,4.03
2023-07-09T17:28:05.152Z,4.10
2023-07-09T17:30:38.336Z,3.72
2023-07-09T17:33:10.023Z,3.90
2023-07-09T17:35:42.345Z,3.97
2023-07-09T17:38:14.809Z,4.00
2023-07-09T17:40:46.637Z,3.95
2023-07-09T17:43:19.071Z,4.07
2023-07-09T17:45:52.988Z,3.72
2023-07-09T17:48:25.853Z,3.63
2023-07-09T17:50:57.588Z,4.10
2023-07-09T17:53:30.791Z,4.10
2023-07-09T17:56:02.813Z,3.63
2023-07-09T17:58:36.188Z,4.30
2023-07-09T18:01:09.212Z,4.32
2023-07-09T18:03:40.989Z,3.83
2023-07-09T18:06:14.744Z,4.10
2023-07-09T18:08:46.465Z,3.70
2023-07-09T18:11:27.427Z,4.05
2023-07-09T18:13:59.342Z,3.58
2023-07-09T18:16:32.458Z,4.20
2023-07-09T18:19:04.182Z,4.10
2023-07-09T18:21:35.926Z,3.88
2023-07-09T18:24:07.669Z,3.42
2023-07-09T18:26:39.396Z,3.83
2023-07-09T18:29:21.969Z,4.32
2023-07-09T18:31:55.024Z,4.00
2023-07-09T18:34:26.702Z,4.90
2023-07-09T18:36:58.483Z,4.20
2023-07-09T18:39:30.220Z,4.70
2023-07-09T18:42:02.062Z,3.85
2023-07-09T18:44:34.857Z,4.47
2023-07-09T18:47:13.565Z,4.60
2023-07-09T18:49:46.296Z,4.18
2023-07-09T18:52:20.210Z,5.10
2023-07-09T18:54:54.661Z,4.40
2023-07-09T18:57:26.348Z,4.43
2023-07-09T18:59:58.066Z,4.38
2023-07-09T19:02:31.219Z,4.57
2023-07-09T19:05:05.827Z,4.57
2023-07-09T19:07:37.886Z,5.03
2023-07-09T19:10:14.026Z,4.68
2023-07-09T19:12:46.896Z,5.65
2023-07-09T19:15:18.580Z,5.00
2023-07-09T19:17:52.041Z,5.25
2023-07-09T19:20:24.451Z,5.10
2023-07-09T19:22:56.143Z,5.10
2023-07-09T19:25:28.574Z,4.63
2023-07-09T19:28:00.261Z,5.30
2023-07-09T19:30:31.980Z,5.70
2023-07-09T19:33:05.088Z,5.15
2023-07-09T19:35:36.864Z,5.22
2023-07-09T19:38:09.581Z,5.60
2023-07-09T19:40:41.760Z,5.38
2023-07-09T19:43:13.638Z,5.90
2023-07-09T19:45:46.495Z,5.40
2023-07-09T19:48:22.726Z,5.25
2023-07-09T19:50:54.466Z,5.97
2023-07-09T19:53:28.683Z,6.10
2023-07-09T19:56:00.663Z,6.00
2023-07-09T19:58:32.728Z,5.90
2023-07-09T20:01:05.804Z,6.00
2023-07-09T20:03:39.333Z,6.10
2023-07-09T20:06:11.877Z,6.13
2023-07-09T20:08:43.561Z,6.10
2023-07-09T20:11:15.264Z,5.57
2023-07-09T20:13:47.051Z,5.88
2023-07-09T20:16:23.835Z,5.70
2023-07-09T20:18:58.461Z,6.28
2023-07-09T20:21:30.145Z,7.38
2023-07-09T20:24:04.510Z,5.90
2023-07-09T20:26:36.585Z,6.25
2023-07-09T20:29:10.824Z,7.03
2023-07-09T20:31:42.921Z,7.20
2023-07-09T20:34:17.388Z,6.85
2023-07-09T20:36:49.334Z,6.22
2023-07-09T20:39:21.850Z,7.65
2023-07-09T20:41:53.959Z,7.20
2023-07-09T20:44:27.258Z,7.57
2023-07-09T20:46:59.006Z,7.93
2023-07-09T20:49:33.001Z,7.20
2023-07-09T20:52:05.602Z,6.90
2023-07-09T20:54:37.660Z,7.05
2023-07-09T20:57:11.686Z,7.03
2023-07-09T20:59:43.767Z,7.07
2023-07-09T21:02:18.545Z,7.38
2023-07-09T21:04:52.168Z,7.45
2023-07-09T21:07:24.352Z,7.28
2023-07-09T21:09:56.451Z,7.43
2023-07-09T21:12:28.501Z,7.30
2023-07-09T21:15:00.573Z,7.57
2023-07-09T21:17:32.732Z,8.05
2023-07-09T21:20:09.919Z,7.85
2023-07-09T21:22:41.999Z,8.20
2023-07-09T21:25:19.214Z,8.50
2023-07-09T21:27:51.404Z,7.93
2023-07-09T21:30:23.164Z,8.35
2023-07-09T21:32:55.285Z,9.20
2023-07-09T21:35:28.777Z,9.05
2023-07-09T21:38:00.831Z,9.02
2023-07-09T21:40:33.402Z,8.20
2023-07-09T21:43:05.167Z,8.50
2023-07-09T21:45:38.083Z,8.20
2023-07-09T21:48:12.102Z,8.90
2023-07-09T21:50:45.143Z,9.20
2023-07-09T21:53:30.687Z,8.95
2023-07-09T21:56:11.811Z,8.88
2023-07-09T21:58:43.540Z,8.15
